Time;durP1;ratioP1;P1;durP2;ratioP2;P2;SDS_P1;SDS_P2;PMS_P1;PMS_P2;Temp;Humidity;BMP_temperature;BMP_pressure;BME280_temperature;BME280_humidity;BME280_pressure;Samples;Min_cycle;Max_cycle;Signal;HPM_P1;HPM_P2
2023/01/16 00:01:42;;;;;;;2.93;0.77;;;;;;;2.57;100.00;99499.53;4923107;29;20334;-91
2023/01/16 00:04:16;;;;;;;2.95;0.75;;;;;;;2.51;100.00;99497.03;4935665;29;20148;-90
2023/01/16 00:06:42;;;;;;;3.03;0.60;;;;;;;2.34;100.00;99484.56;5014375;28;20452;-91
2023/01/16 00:09:07;;;;;;;3.13;0.75;;;;;;;2.13;100.00;99459.59;5009225;28;20036;-91
2023/01/16 00:11:36;;;;;;;4.47;1.00;;;;;;;2.07;100.00;99449.97;5047096;28;20097;-90
2023/01/16 00:14:02;;;;;;;4.85;0.90;;;;;;;2.32;100.00;99497.22;5036202;28;20029;-91
2023/01/16 00:16:27;;;;;;;5.57;1.13;;;;;;;1.99;100.00;99445.06;5039243;28;20040;-91
2023/01/16 00:19:05;;;;;;;4.05;0.75;;;;;;;1.91;100.00;99452.31;5042393;28;20125;-91
2023/01/16 00:21:30;;;;;;;8.55;0.90;;;;;;;1.93;100.00;99458.16;5017030;28;20180;-89
2023/01/16 00:24:06;;;;;;;5.60;0.70;;;;;;;2.08;100.00;99485.91;5017235;28;20101;-91
2023/01/16 00:26:56;;;;;;;6.45;0.95;;;;;;;2.01;100.00;99479.97;5038909;22;20157;-91
2023/01/16 00:29:31;;;;;;;3.70;1.20;;;;;;;1.82;100.00;99453.72;5033672;28;20076;-91
2023/01/16 00:32:05;;;;;;;7.37;1.10;;;;;;;1.69;100.00;99440.75;5032535;28;20295;-91
2023/01/16 00:34:31;;;;;;;8.05;1.38;;;;;;;1.64;100.00;99436.19;5056001;22;20231;-92
2023/01/16 00:37:11;;;;;;;7.67;1.40;;;;;;;1.69;100.00;99459.25;5031624;28;20034;-91
2023/01/16 00:40:16;;;;;;;5.60;1.00;;;;;;;1.66;100.00;99456.03;5013278;28;20281;-91
2023/01/16 00:42:47;;;;;;;9.27;1.35;;;;;;;1.67;100.00;99435.72;4969555;28;20496;-91
2023/01/16 00:45:24;;;;;;;9.90;1.30;;;;;;;1.70;100.00;99451.09;5031073;28;20069;-91
2023/01/16 00:47:55;;;;;;;5.75;1.25;;;;;;;1.54;100.00;99420.94;5045778;28;20029;-90
2023/01/16 00:50:31;;;;;;;7.60;1.13;;;;;;;1.54;100.00;99420.13;5046028;28;20035;-91
2023/01/16 00:52:59;;;;;;;7.47;0.77;;;;;;;1.77;100.00;99461.53;5015934;28;20026;-91
2023/01/16 00:55:25;;;;;;;7.30;1.20;;;;;;;1.60;100.00;99432.38;5009848;28;20344;-91
2023/01/16 00:57:51;;;;;;;4.68;1.17;;;;;;;1.60;100.00;99427.09;5023732;28;20741;-91
2023/01/16 01:00:20;;;;;;;5.63;1.17;;;;;;;1.61;100.00;99429.53;5016086;28;20033;-91
2023/01/16 01:02:48;;;;;;;6.13;0.60;;;;;;;1.52;100.00;99417.72;5032383;28;20282;-90
2023/01/16 01:05:14;;;;;;;8.35;1.25;;;;;;;1.61;100.00;99421.63;5031077;28;20022;-91
2023/01/16 01:07:39;;;;;;;9.43;1.13;;;;;;;1.56;100.00;99416.22;5032691;28;20496;-90
2023/01/16 01:10:05;;;;;;;5.80;0.70;;;;;;;1.60;100.00;99413.91;5027972;28;20202;-92
2023/01/16 01:12:30;;;;;;;6.93;0.80;;;;;;;1.50;100.00;99406.56;5015017;28;20388;-91
2023/01/16 01:14:55;;;;;;;8.27;1.00;;;;;;;1.29;100.00;99378.97;5030925;28;20303;-90
2023/01/16 01:17:27;;;;;;;3.43;0.73;;;;;;;1.43;100.00;99405.91;5027625;28;20048;-91
2023/01/16 01:19:52;;;;;;;6.53;1.38;;;;;;;1.43;100.00;99408.56;5012643;28;20025;-90
2023/01/16 01:22:18;;;;;;;5.23;0.60;;;;;;;1.38;100.00;99408.44;5012143;28;20137;-90
2023/01/16 01:24:48;;;;;;;5.10;0.80;;;;;;;1.38;100.00;99411.09;4995427;28;20025;-91
2023/01/16 01:27:13;;;;;;;9.43;0.75;;;;;;;1.38;100.00;99388.13;4997131;28;20022;-90
2023/01/16 01:29:38;;;;;;;3.13;1.00;;;;;;;1.39;100.00;99388.94;5012613;28;20037;-90
2023/01/16 01:32:05;;;;;;;5.83;0.80;;;;;;;1.37;100.00;99383.88;5011953;28;20323;-90
2023/01/16 01:34:34;;;;;;;6.78;0.88;;;;;;;1.04;100.00;99340.44;5016249;28;20021;-90
2023/01/16 01:37:05;;;;;;;6.57;0.90;;;;;;;1.11;100.00;99342.94;5014184;28;20096;-91
2023/01/16 01:39:31;;;;;;;5.40;1.10;;;;;;;1.10;100.00;99331.59;5012523;28;20026;-90
2023/01/16 01:44:49;;;;;;;8.50;1.00;;;;;;;1.26;100.00;99353.84;5011617;28;20320;-89
2023/01/16 01:47:16;;;;;;;5.88;0.95;;;;;;;1.20;100.00;99338.94;5013585;28;20046;-90
2023/01/16 01:49:42;;;;;;;10.38;1.20;;;;;;;1.10;100.00;99312.31;5013674;28;20026;-89
2023/01/16 01:52:33;;;;;;;5.15;0.93;;;;;;;1.13;100.00;99317.13;5030357;28;20029;-88
2023/01/16 01:55:03;;;;;;;7.50;0.68;;;;;;;1.09;100.00;99310.72;5023392;28;20044;-89
2023/01/16 01:57:34;;;;;;;6.23;0.80;;;;;;;1.02;100.00;99301.09;4993315;28;20069;-90
2023/01/16 02:00:08;;;;;;;7.78;1.35;;;;;;;0.99;100.00;99296.28;5022802;28;20017;-90
2023/01/16 02:02:39;;;;;;;6.18;1.05;;;;;;;1.06;100.00;99311.97;5026826;28;20017;-90
2023/01/16 02:05:08;;;;;;;8.23;1.20;;;;;;;0.99;100.00;99283.09;5025045;28;20021;-91
2023/01/16 02:07:34;;;;;;;5.90;1.40;;;;;;;1.13;100.00;99288.09;5024294;28;20030;-91
2023/01/16 02:10:11;;;;;;;9.37;0.93;;;;;;;1.08;100.00;99280.91;5020241;28;20045;-90
2023/01/16 02:12:36;;;;;;;8.73;0.93;;;;;;;1.16;100.00;99285.81;5025582;28;20022;-91
2023/01/16 02:15:02;;;;;;;9.57;1.43;;;;;;;1.14;100.00;99287.06;5028535;28;20026;-90
2023/01/16 02:20:34;;;;;;;13.63;1.20;;;;;;;1.03;100.00;99260.50;5056687;28;20032;-90
2023/01/16 02:23:41;;;;;;;7.57;1.30;;;;;;;1.09;100.00;99257.97;5046691;28;20489;-91
2023/01/16 02:26:17;;;;;;;8.30;1.30;;;;;;;1.13;100.00;99265.19;5040047;28;20014;-91
2023/01/16 02:29:14;;;;;;;9.97;1.33;;;;;;;1.22;100.00;99257.69;5022529;28;20312;-90
2023/01/16 02:32:15;;;;;;;7.90;1.27;;;;;;;1.19;100.00;99253.66;5039566;28;20034;-90
2023/01/16 02:34:59;;;;;;;8.90;1.35;;;;;;;1.14;100.00;99229.03;5019494;28;20040;-90
2023/01/16 02:37:54;;;;;;;9.25;1.15;;;;;;;1.16;100.00;99226.97;5000615;28;20038;-90
2023/01/16 02:40:59;;;;;;;10.05;0.93;;;;;;;1.16;100.00;99217.22;5017141;28;20025;-89
2023/01/16 02:44:01;;;;;;;7.10;0.97;;;;;;;1.20;100.00;99199.06;4884015;29;20444;-90
2023/01/16 02:50:33;;;;;;;5.05;0.95;;;;;;;0.81;100.00;99139.00;4936320;29;20576;-91
2023/01/16 03:03:00;;;;;;;8.30;0.85;;;;;;;1.12;100.00;99147.47;4861775;29;20467;-90
2023/01/16 03:06:15;;;;;;;11.80;0.73;;;;;;;0.79;100.00;99095.44;4924555;29;20771;-90
2023/01/16 03:09:23;;;;;;;2.80;0.57;;;;;;;1.09;100.00;99136.59;4946639;29;20028;-91
2023/01/16 03:12:39;;;;;;;6.43;0.60;;;;;;;1.07;100.00;99123.63;4941992;29;20080;-90
2023/01/16 03:15:21;;;;;;;4.70;0.60;;;;;;;1.09;100.00;99128.69;5266598;22;20049;-91
2023/01/16 03:18:19;;;;;;;4.63;1.15;;;;;;;1.08;100.00;99109.41;5047233;28;20033;-90
2023/01/16 03:20:58;;;;;;;7.37;0.60;;;;;;;1.05;100.00;99094.06;5046591;28;20146;-90
2023/01/16 03:23:51;;;;;;;8.27;0.80;;;;;;;1.05;100.00;99089.59;5018885;28;20343;-90
2023/01/16 03:29:56;;;;;;;3.97;0.70;;;;;;;0.99;100.00;99064.16;5012571;28;20064;-90
2023/01/16 03:32:51;;;;;;;4.30;0.73;;;;;;;1.09;100.00;99073.28;5017140;28;20106;-90
2023/01/16 03:35:22;;;;;;;3.63;0.50;;;;;;;1.09;100.00;99058.25;5007030;28;20037;-92
2023/01/16 03:37:56;;;;;;;5.30;0.80;;;;;;;0.90;100.00;99024.19;5017092;28;20034;-91
2023/01/16 03:40:51;;;;;;;9.97;0.93;;;;;;;0.78;100.00;99004.16;5024809;28;20265;-90
2023/01/16 03:43:49;;;;;;;3.97;0.52;;;;;;;0.64;100.00;98988.66;5021457;28;20030;-90
2023/01/16 03:46:24;;;;;;;6.38;0.95;;;;;;;0.93;100.00;99016.81;5021321;28;20090;-88
2023/01/16 03:49:17;;;;;;;7.63;0.80;;;;;;;0.73;100.00;98984.59;5009711;28;20026;-91
2023/01/16 03:52:04;;;;;;;7.93;0.70;;;;;;;0.82;100.00;98984.22;5030352;28;20121;-92
2023/01/16 03:55:05;;;;;;;5.40;1.03;;;;;;;0.99;100.00;98989.50;5008539;23;20041;-89
2023/01/16 03:58:00;;;;;;;5.33;0.73;;;;;;;0.81;100.00;98956.25;4959892;28;20323;-91
2023/01/16 04:01:00;;;;;;;8.52;0.80;;;;;;;1.01;100.00;98971.56;5031904;28;20045;-91
2023/01/16 04:06:35;;;;;;;7.05;1.05;;;;;;;0.73;100.00;98912.59;5051856;22;20084;-91
2023/01/16 04:09:06;;;;;;;5.75;1.00;;;;;;;0.98;100.00;98943.84;5034995;28;20053;-91
2023/01/16 04:11:35;;;;;;;8.03;0.90;;;;;;;0.99;100.00;98937.53;5038243;28;20083;-91
2023/01/16 04:14:44;;;;;;;;;;;;;;;;;;;;;
2023/01/16 04:17:09;;;;;;;7.10;1.13;;;;;;;0.96;100.00;98905.56;5037710;28;20120;-91
2023/01/16 04:19:55;;;;;;;8.20;1.50;;;;;;;0.80;100.00;98881.63;5043354;28;20037;-91
2023/01/16 04:22:57;;;;;;;9.57;1.10;;;;;;;0.94;100.00;98881.28;5054858;28;20304;-91
2023/01/16 04:25:22;;;;;;;4.88;1.30;;;;;;;0.93;100.00;98875.19;4949591;28;20046;-91
2023/01/16 04:27:47;;;;;;;4.27;1.50;;;;;;;0.92;100.00;98855.13;5076079;28;20044;-91
2023/01/16 04:30:22;;;;;;;7.53;1.20;;;;;;;1.22;100.00;98880.34;5032583;28;20016;-91
2023/01/16 04:33:00;;;;;;;3.20;0.77;;;;;;;1.20;100.00;98867.38;5047893;28;20783;-91
2023/01/16 04:35:40;;;;;;;8.77;1.13;;;;;;;1.31;100.00;98863.03;5024934;28;20017;-90
2023/01/16 04:38:05;;;;;;;5.95;1.40;;;;;;;1.17;100.00;98827.50;5048105;28;20097;-91
2023/01/16 04:40:37;;;;;;;7.30;1.30;;;;;;;1.44;100.00;98853.97;5036914;28;20079;-91
2023/01/16 04:43:05;;;;;;;7.10;1.40;;;;;;;1.35;100.00;98821.94;5016869;28;20120;-92
2023/01/16 04:45:32;;;;;;;10.15;1.50;;;;;;;1.18;100.00;98778.97;5055243;28;20031;-90
2023/01/16 04:48:07;;;;;;;;;;;;;;;;;;;;;
2023/01/16 04:50:36;;;;;;;5.73;0.80;;;;;;;1.41;100.00;98771.84;5036459;28;20033;-92
2023/01/16 04:53:36;;;;;;;8.63;1.10;;;;;;;1.69;100.00;98791.13;5038907;28;20292;-90
2023/01/16 04:56:01;;;;;;;5.93;1.27;;;;;;;1.75;100.00;98776.94;5054859;28;20012;-90
2023/01/16 04:58:29;;;;;;;7.60;1.13;;;;;;;1.58;100.00;98743.50;5055984;28;20014;-90
2023/01/16 05:00:55;;;;;;;10.73;1.27;;;;;;;1.64;100.00;98731.94;5068940;28;20014;-92
2023/01/16 05:03:20;;;;;;;7.15;1.00;;;;;;;1.71;100.00;98728.31;5040179;28;20024;-91
2023/01/16 05:06:15;;;;;;;3.33;0.97;;;;;;;1.94;100.00;98743.84;5057632;28;20047;-93
2023/01/16 05:08:40;;;;;;;9.52;1.20;;;;;;;1.96;100.00;98727.72;5040789;28;20025;-93
2023/01/16 05:11:40;;;;;;;6.40;1.10;;;;;;;1.87;100.00;98693.06;5057107;28;20010;-93
2023/01/16 05:14:33;;;;;;;4.60;0.75;;;;;;;2.00;100.00;98704.25;5177268;22;20024;-92
2023/01/16 05:16:58;;;;;;;7.45;1.17;;;;;;;1.92;100.00;98676.44;5014567;28;20046;-94
2023/01/16 05:19:24;;;;;;;8.07;0.80;;;;;;;2.03;100.00;98682.59;5017391;28;20045;-94
2023/01/16 05:21:49;;;;;;;8.90;1.27;;;;;;;2.04;100.00;98665.69;5011947;28;20121;-92
2023/01/16 05:24:15;;;;;;;8.57;0.90;;;;;;;2.00;100.00;98651.44;5008767;28;20030;-95
2023/01/16 05:26:40;;;;;;;4.47;1.30;;;;;;;1.98;100.00;98638.44;5015549;28;20037;-92
2023/01/16 05:29:07;;;;;;;6.97;0.90;;;;;;;2.20;100.00;98646.25;5007275;28;20038;-95
2023/01/16 05:31:32;;;;;;;10.05;0.95;;;;;;;2.12;100.00;98630.88;4991995;28;20373;-94
2023/01/16 05:34:01;;;;;;;4.47;0.80;;;;;;;2.07;100.00;98601.78;5015152;28;20050;-94
2023/01/16 05:37:11;;;;;;;7.32;0.88;;;;;;;2.29;100.00;98616.69;5184644;23;20038;-95
2023/01/16 05:39:36;;;;;;;4.38;0.80;;;;;;;2.46;100.00;98635.03;4981123;28;20060;-94
2023/01/16 05:45:35;;;;;;;7.22;0.73;;;;;;;2.48;100.00;98612.56;5035302;28;20036;-95
2023/01/16 05:57:20;;;;;;;6.45;0.80;;;;;;;2.47;100.00;98552.00;5451212;22;20056;-95
2023/01/16 06:00:06;;;;;;;4.27;0.70;;;;;;;2.56;100.00;98550.44;5057789;28;20101;-95
2023/01/16 06:05:29;;;;;;;4.35;0.90;;;;;;;2.31;100.00;98498.31;5174311;22;20047;-92
2023/01/16 06:09:06;;;;;;;3.05;0.80;;;;;;;2.65;100.00;98548.09;5066339;28;20005;-94
2023/01/16 06:11:53;;;;;;;7.75;0.90;;;;;;;2.40;100.00;98497.53;5055197;28;20029;-95
2023/01/16 06:14:33;;;;;;;1.95;0.77;;;;;;;2.41;100.00;98499.13;5047151;28;20028;-96
2023/01/16 06:17:01;;;;;;;5.95;0.60;;;;;;;2.71;100.00;98533.81;5055593;28;20020;-96
2023/01/16 06:19:40;;;;;;;3.77;0.70;;;;;;;2.63;100.00;98515.81;5054924;28;20017;-96
2023/01/16 06:22:09;;;;;;;8.57;0.88;;;;;;;2.38;100.00;98475.03;5042597;28;20034;-94
2023/01/16 06:24:34;;;;;;;5.55;0.85;;;;;;;2.54;100.00;98491.75;5035002;28;20041;-91
2023/01/16 06:27:00;;;;;;;7.25;0.80;;;;;;;2.37;100.00;98462.91;5047092;28;20040;-92
2023/01/16 06:29:25;;;;;;;4.20;0.57;;;;;;;2.35;100.00;98465.78;5046229;28;20031;-91
2023/01/16 06:31:52;;;;;;;2.37;0.60;;;;;;;2.46;100.00;98482.47;5050666;28;20504;-93
2023/01/16 06:34:24;;;;;;;3.08;0.70;;;;;;;2.43;100.00;98472.41;5035054;28;20025;-89
2023/01/16 06:36:52;;;;;;;2.25;0.50;;;;;;;2.58;100.00;98490.94;5045580;28;20033;-96
2023/01/16 06:39:40;;;;;;;3.17;0.70;;;;;;;2.47;100.00;98470.84;5036030;28;20041;-96
2023/01/16 06:42:05;;;;;;;5.30;0.87;;;;;;;2.48;100.00;98469.78;5036234;28;20038;-94
2023/01/16 06:44:36;;;;;;;10.17;3.13;;;;;;;2.35;100.00;98428.00;5057260;28;20275;-94
2023/01/16 06:47:39;;;;;;;7.43;2.50;;;;;;;2.53;100.00;98440.72;5033194;28;20036;-93
2023/01/16 06:50:25;;;;;;;8.68;1.77;;;;;;;2.21;100.00;98378.28;5057881;28;20025;-94
2023/01/16 06:53:01;;;;;;;4.67;0.70;;;;;;;2.35;100.00;98391.00;5052963;28;20401;-94
2023/01/16 06:55:47;;;;;;;;;;;;;;;;;;;;;
2023/01/16 06:58:30;;;;;;;5.43;0.50;;;;;;;2.19;100.00;98345.25;5063372;28;20079;-94
2023/01/16 07:01:06;;;;;;;;;;;;;;;;;;;;;
2023/01/16 07:03:44;;;;;;;5.90;0.82;;;;;;;2.15;100.00;98315.94;5071189;28;20080;-91
2023/01/16 07:06:10;;;;;;;4.18;0.60;;;;;;;2.50;100.00;98361.13;5060459;28;20032;-93
2023/01/16 07:08:35;;;;;;;2.20;0.87;;;;;;;2.47;100.00;98337.84;5050624;28;20716;-96
2023/01/16 07:11:01;;;;;;;6.13;0.77;;;;;;;2.35;100.00;98320.44;5060089;28;20021;-91
2023/01/16 07:13:32;;;;;;;3.17;0.70;;;;;;;2.25;100.00;98294.00;5064488;28;20048;-91
2023/01/16 07:28:18;;;;;;;2.42;0.82;;;;;;;2.36;100.00;98255.16;5036112;28;20100;-93
2023/01/16 07:30:57;;;;;;;1.77;0.63;;;;;;;2.36;100.00;98261.22;5038170;28;20033;-96
2023/01/16 07:33:26;;;;;;;7.25;0.70;;;;;;;2.16;100.00;98219.78;5040086;28;20501;-95
2023/01/16 07:35:51;;;;;;;6.65;0.70;;;;;;;2.27;100.00;98231.91;5039365;28;20029;-93
2023/01/16 07:38:17;;;;;;;10.77;0.90;;;;;;;2.43;100.00;98239.81;5039722;28;20477;-94
2023/01/16 07:40:42;;;;;;;8.52;1.00;;;;;;;2.26;100.00;98219.75;5040601;28;20025;-96
2023/01/16 07:45:55;;;;;;;8.63;0.93;;;;;;;2.23;100.00;98193.06;5023846;26;20033;-94
2023/01/16 07:49:06;;;;;;;7.77;0.80;;;;;;;2.52;100.00;98232.94;5054978;28;20272;-92
2023/01/16 07:51:31;;;;;;;6.18;1.40;;;;;;;2.47;100.00;98210.97;5037636;28;20025;-94
2023/01/16 07:53:56;;;;;;;3.47;1.20;;;;;;;2.55;100.00;98210.44;5038217;28;20018;-95
2023/01/16 07:56:22;;;;;;;5.05;0.90;;;;;;;2.46;100.00;98196.97;5039008;28;20028;-96
2023/01/16 08:02:10;;;;;;;6.10;0.60;;;;;;;2.33;100.00;98161.31;5026895;28;20016;-95
2023/01/16 08:04:35;;;;;;;3.97;0.70;;;;;;;2.17;100.00;98130.72;5029543;28;20166;-89
2023/01/16 08:07:01;;;;;;;6.10;1.10;;;;;;;2.54;100.00;98180.56;5010513;28;20030;-94
2023/01/16 08:09:29;;;;;;;5.90;0.83;;;;;;;2.56;100.00;98169.72;5008844;28;20030;-95
2023/01/16 08:11:55;;;;;;;3.95;0.70;;;;;;;2.55;100.00;98161.00;5029163;28;20022;-94
2023/01/16 08:14:29;;;;;;;6.45;0.55;;;;;;;2.55;100.00;98150.44;5028401;28;20040;-93
2023/01/16 08:20:22;;;;;;;2.07;0.57;;;;;;;2.55;100.00;98115.25;5017865;28;20052;-95
2023/01/16 08:25:23;;;;;;;5.82;0.70;;;;;;;2.66;100.00;98123.94;5369981;22;20044;-95
2023/01/16 08:27:51;;;;;;;5.75;0.77;;;;;;;2.62;100.00;98109.66;5036968;28;20128;-93
2023/01/16 08:30:17;;;;;;;3.10;0.73;;;;;;;2.42;100.00;98069.84;5046854;28;20025;-94
2023/01/16 08:51:41;;;;;;;4.57;0.98;;;;;;;2.75;100.00;98079.19;5012408;28;20171;-93
2023/01/16 08:54:06;;;;;;;3.73;1.10;;;;;;;2.74;100.00;98073.09;5014442;28;20029;-92
2023/01/16 08:56:47;;;;;;;6.07;1.15;;;;;;;2.83;100.00;98086.56;5012964;28;20040;-94
2023/01/16 08:59:13;;;;;;;6.37;1.27;;;;;;;2.81;100.00;98084.19;4994714;28;20042;-93
2023/01/16 09:01:41;;;;;;;6.43;1.20;;;;;;;2.51;100.00;98035.72;5006698;28;20295;-94
2023/01/16 09:04:06;;;;;;;2.70;1.10;;;;;;;2.88;100.00;98083.88;5002319;28;20022;-93
2023/01/16 09:15:08;;;;;;;3.30;1.00;;;;;;;2.83;100.00;98057.47;5003902;28;20048;-92
2023/01/16 09:17:33;;;;;;;4.55;0.60;;;;;;;2.90;100.00;98067.75;4975845;28;20043;-92
2023/01/16 09:19:59;;;;;;;3.07;0.50;;;;;;;2.79;100.00;98045.88;4996144;28;20499;-94
2023/01/16 09:22:26;;;;;;;13.53;3.30;;;;;;;2.83;100.00;98052.97;5002432;28;20025;-95
2023/01/16 09:24:52;;;;;;;9.10;2.70;;;;;;;2.85;100.00;98056.13;4996614;28;20053;-94
2023/01/16 09:27:18;;;;;;;45.10;11.82;;;;;;;2.83;100.00;98047.69;4996475;28;20050;-92
2023/01/16 09:29:43;;;;;;;26.93;5.77;;;;;;;2.86;100.00;98051.63;5007539;28;20030;-94
2023/01/16 09:32:09;;;;;;;12.83;3.40;;;;;;;2.84;100.00;98049.25;5004672;28;20297;-94
2023/01/16 09:34:36;;;;;;;4.77;0.97;;;;;;;2.85;100.00;98044.75;4995226;28;20018;-95
2023/01/16 09:37:02;;;;;;;2.72;0.70;;;;;;;2.87;100.00;98039.97;4996504;28;20026;-94
2023/01/16 09:39:28;;;;;;;3.80;0.55;;;;;;;2.80;100.00;98027.06;4997845;28;20033;-94
2023/01/16 09:44:54;;;;;;;1.90;0.40;;;;;;;2.80;100.00;98021.00;5627775;22;20467;-92
2023/01/16 09:47:24;;;;;;;2.35;0.40;;;;;;;2.75;100.00;98003.28;5038297;28;20033;-93
2023/01/16 09:50:06;;;;;;;1.45;0.30;;;;;;;2.82;100.00;98019.66;5035881;28;20025;-94
2023/01/16 10:01:16;;;;;;;0.60;0.30;;;;;;;3.00;100.00;98020.06;5038679;28;20268;-92
2023/01/16 10:07:42;;;;;;;;;;;;;;;;;;;;;
2023/01/16 10:10:58;;;;;;;;;;;;;;;;;;;;;
2023/01/16 10:14:20;;;;;;;;;;;;;;;;;;;;;
2023/01/16 10:17:00;;;;;;;1.17;0.30;;;;;;;3.16;100.00;97987.09;5001808;28;20071;-91
2023/01/16 10:20:15;;;;;;;0.20;0.20;;;;;;;3.25;100.00;97974.06;5001008;28;20041;-91
2023/01/16 10:27:00;;;;;;;0.73;0.43;;;;;;;3.63;100.00;97971.56;4935844;29;20128;-92
2023/01/16 10:36:44;;;;;;;0.60;0.30;;;;;;;3.86;100.00;97952.50;4960682;28;20060;-92
2023/01/16 10:50:39;;;;;;;4.85;0.20;;;;;;;3.66;100.00;97903.22;5017050;28;20064;-92
2023/01/16 11:03:54;;;;;;;1.95;0.55;;;;;;;3.72;100.00;97896.78;5124616;22;20118;-94
2023/01/16 11:06:28;;;;;;;0.75;0.30;;;;;;;3.51;100.00;97861.81;5027476;28;20042;-94
2023/01/16 11:09:23;;;;;;;0.50;0.28;;;;;;;3.63;100.00;97886.03;5042492;28;20014;-94
2023/01/16 11:35:12;;;;;;;0.20;0.20;;;;;;;3.93;100.00;97812.53;5674224;22;20076;-92
2023/01/16 11:37:39;;;;;;;1.10;0.40;;;;;;;3.91;100.00;97806.72;5023578;28;20018;-92
2023/01/16 11:40:05;;;;;;;0.40;0.20;;;;;;;3.89;100.00;97790.31;5008125;28;20033;-91
2023/01/16 11:48:25;;;;;;;2.77;0.40;;;;;;;4.01;100.00;97752.78;5014264;28;20296;-92
2023/01/16 11:50:54;;;;;;;0.20;0.20;;;;;;;4.25;100.00;97784.47;5017682;28;20040;-92
2023/01/16 11:53:19;;;;;;;1.48;0.32;;;;;;;4.29;100.00;97779.38;4995848;28;20438;-92
2023/01/16 11:56:00;;;;;;;0.87;0.30;;;;;;;4.25;100.00;97776.50;5019126;28;20049;-92
2023/01/16 11:58:34;;;;;;;0.30;0.20;;;;;;;4.24;100.00;97775.75;5015252;28;20032;-93
2023/01/16 12:01:13;;;;;;;0.90;0.40;;;;;;;4.24;100.00;97764.34;5014720;28;20049;-92
2023/01/16 12:03:58;;;;;;;1.20;0.40;;;;;;;4.34;100.00;97758.06;5345185;22;20049;-91
2023/01/16 12:06:35;;;;;;;0.50;0.25;;;;;;;4.32;100.00;97760.22;5034053;28;20045;-92
2023/01/16 12:09:34;;;;;;;0.97;0.30;;;;;;;4.32;100.00;97737.16;5034405;28;20076;-92
2023/01/16 12:22:24;;;;;;;1.45;0.30;;;;;;;4.40;100.00;97736.47;5250552;22;20087;-92
2023/01/16 12:25:19;;;;;;;0.30;0.30;;;;;;;4.45;100.00;97724.22;5076116;28;20033;-93
2023/01/16 12:27:56;;;;;;;1.07;0.33;;;;;;;4.46;100.00;97728.44;5075748;28;20036;-94
2023/01/16 12:30:35;;;;;;;1.45;0.30;;;;;;;4.40;100.00;97717.94;5076625;28;20036;-93
2023/01/16 12:33:44;;;;;;;1.40;0.40;;;;;;;4.18;100.00;97684.13;5077207;28;20039;-93
2023/01/16 12:36:32;;;;;;;0.40;0.30;;;;;;;4.32;100.00;97712.50;5066041;28;20029;-94
2023/01/16 12:39:16;;;;;;;0.60;0.30;;;;;;;4.23;100.00;97701.81;5063528;28;20032;-94
2023/01/16 12:44:37;;;;;;;0.67;0.40;;;;;;;4.30;100.00;97693.47;5045461;28;20159;-92
2023/01/16 12:47:35;;;;;;;1.00;0.73;;;;;;;4.33;100.00;97680.44;5065878;28;20777;-92
2023/01/16 12:50:31;;;;;;;1.25;0.50;;;;;;;4.40;100.00;97686.09;5072716;28;20414;-92
2023/01/16 12:53:33;;;;;;;1.97;0.80;;;;;;;4.46;100.00;97678.06;5073991;28;20025;-93
2023/01/16 12:56:14;;;;;;;2.42;0.80;;;;;;;4.52;100.00;97672.38;5079198;28;20036;-93
2023/01/16 13:02:18;;;;;;;0.82;0.43;;;;;;;4.61;100.00;97655.78;4924078;29;20571;-93
2023/01/16 13:04:51;;;;;;;0.75;0.60;;;;;;;4.46;100.00;97627.69;4923170;28;20109;-92
2023/01/16 13:07:18;;;;;;;0.80;0.30;;;;;;;4.61;100.00;97645.94;5001788;28;20038;-93
2023/01/16 13:13:22;;;;;;;0.68;0.35;;;;;;;4.55;100.00;97636.53;5214463;22;20103;-93
2023/01/16 13:15:57;;;;;;;0.40;0.20;;;;;;;4.57;100.00;97633.56;5052589;28;20056;-92
2023/01/16 13:18:31;;;;;;;0.50;0.20;;;;;;;4.54;100.00;97616.41;5054965;28;20017;-93
2023/01/16 13:21:00;;;;;;;0.20;0.20;;;;;;;4.54;100.00;97624.34;5036934;28;20116;-94
2023/01/16 13:23:31;;;;;;;0.30;0.20;;;;;;;4.62;100.00;97622.88;5058441;28;20030;-88
2023/01/16 13:26:16;;;;;;;0.40;0.20;;;;;;;4.64;100.00;97621.47;5050712;28;20028;-92
2023/01/16 13:28:51;;;;;;;0.63;0.20;;;;;;;4.70;100.00;97624.81;5039244;28;20121;-93
2023/01/16 13:31:34;;;;;;;0.52;0.30;;;;;;;4.76;100.00;97628.13;5036978;28;20036;-93
2023/01/16 13:34:11;;;;;;;1.35;0.28;;;;;;;4.78;100.00;97618.81;5029827;28;20018;-92
2023/01/16 13:36:36;;;;;;;0.85;0.30;;;;;;;4.90;100.00;97618.31;5037914;28;20400;-92
2023/01/16 13:39:14;;;;;;;0.50;0.40;;;;;;;4.96;100.00;97621.63;5034999;28;20064;-93
2023/01/16 13:41:45;;;;;;;0.73;0.30;;;;;;;4.94;100.00;97618.47;5029382;28;20052;-93
2023/01/16 13:47:26;;;;;;;0.97;0.23;;;;;;;4.90;100.00;97609.53;5035359;28;20287;-94
2023/01/16 13:49:53;;;;;;;0.95;0.30;;;;;;;4.92;100.00;97610.84;5037957;28;20481;-92
2023/01/16 13:52:28;;;;;;;1.48;0.40;;;;;;;4.58;100.00;97566.97;5040449;28;20120;-94
2023/01/16 13:54:58;;;;;;;0.60;0.30;;;;;;;4.68;100.00;97588.00;5042625;28;20029;-93
2023/01/16 13:57:27;;;;;;;0.47;0.20;;;;;;;4.65;100.00;97598.41;5022583;28;20037;-94
2023/01/16 14:00:22;;;;;;;0.60;0.30;;;;;;;4.70;100.00;97617.66;5025416;28;20034;-94
2023/01/16 14:06:25;;;;;;;0.32;0.20;;;;;;;4.47;100.00;97586.84;5038476;22;20049;-94
2023/01/16 14:09:21;;;;;;;0.20;0.20;;;;;;;4.59;100.00;97612.84;5040874;28;20025;-93
2023/01/16 14:12:30;;;;;;;;;;;;;;;;;;;;;
2023/01/16 14:32:05;;;;;;;0.60;0.30;;;;;;;4.54;100.00;97558.84;5046087;22;20504;-93
2023/01/16 14:38:15;;;;;;;1.03;0.30;;;;;;;4.86;100.00;97598.75;5391117;22;20110;-93
2023/01/16 14:56:30;;;;;;;0.50;0.32;;;;;;;4.84;100.00;97587.66;5042033;28;20099;-92
2023/01/16 14:59:58;;;;;;;1.60;0.50;;;;;;;4.75;100.00;97568.22;5040495;28;20465;-93
2023/01/16 15:02:33;;;;;;;1.13;0.40;;;;;;;4.49;100.00;97534.28;5027127;28;20300;-93
2023/01/16 15:05:12;;;;;;;0.85;0.32;;;;;;;4.78;100.00;97588.84;5042782;28;20021;-93
2023/01/16 15:07:41;;;;;;;2.67;0.40;;;;;;;4.48;100.00;97548.63;5047371;28;20085;-92
2023/01/16 15:10:33;;;;;;;2.60;1.00;;;;;;;4.44;100.00;97550.31;5039776;28;20030;-92
2023/01/16 15:13:25;;;;;;;1.10;0.50;;;;;;;4.70;100.00;97575.22;5043187;28;20033;-93
2023/01/16 15:15:53;;;;;;;0.93;0.60;;;;;;;4.49;100.00;97564.25;5052365;28;20036;-93
2023/01/16 15:24:24;;;;;;;1.02;0.40;;;;;;;4.24;100.00;97565.53;5061323;28;20067;-92
2023/01/16 15:27:15;;;;;;;0.50;0.40;;;;;;;4.06;100.00;97551.34;5073677;28;20111;-91
2023/01/16 15:30:17;;;;;;;1.38;0.70;;;;;;;4.26;100.00;97578.53;5116777;22;20059;-92
2023/01/16 15:35:43;;;;;;;2.63;0.63;;;;;;;4.16;100.00;97582.16;5047111;28;20359;-92
2023/01/16 15:38:21;;;;;;;;;;;;;;;;;;;;;
2023/01/16 15:41:04;;;;;;;0.55;0.40;;;;;;;4.07;100.00;97579.41;5027896;28;20057;-92
2023/01/16 15:46:40;;;;;;;1.27;0.40;;;;;;;3.96;100.00;97578.00;5009877;28;20081;-92
2023/01/16 15:49:11;;;;;;;1.90;0.70;;;;;;;4.04;100.00;97596.66;4998559;28;20030;-93
2023/01/16 15:51:37;;;;;;;0.60;0.50;;;;;;;3.94;100.00;97588.91;4998150;28;20034;-92
2023/01/16 15:54:16;;;;;;;1.17;0.70;;;;;;;3.80;100.00;97567.69;4998149;28;20280;-92
2023/01/16 16:03:59;;;;;;;1.63;0.90;;;;;;;3.93;100.00;97604.00;5435795;22;20049;-92
2023/01/16 16:06:26;;;;;;;2.55;1.00;;;;;;;3.90;100.00;97609.91;4978771;28;20091;-91
2023/01/16 16:09:02;;;;;;;1.20;0.90;;;;;;;3.78;100.00;97591.84;5054616;28;20036;-91
2023/01/16 16:21:13;;;;;;;1.42;1.10;;;;;;;3.64;100.00;97573.28;5037283;28;20036;-92
2023/01/16 16:23:40;;;;;;;1.73;1.10;;;;;;;3.58;100.00;97563.06;5045126;28;20025;-91
2023/01/16 16:26:14;;;;;;;1.65;1.20;;;;;;;3.78;100.00;97604.28;5040533;28;20029;-90
2023/01/16 16:28:40;;;;;;;1.23;1.07;;;;;;;3.66;100.00;97582.78;5042626;28;20025;-91
2023/01/16 16:31:33;;;;;;;1.40;1.20;;;;;;;3.58;100.00;97576.31;5042294;28;20071;-91
2023/01/16 16:34:19;;;;;;;2.53;1.35;;;;;;;3.85;100.00;97610.00;5039925;28;20123;-90
2023/01/16 16:36:46;;;;;;;3.88;1.73;;;;;;;3.85;100.00;97615.28;5038211;28;20025;-88
2023/01/16 16:39:30;;;;;;;2.60;1.50;;;;;;;3.84;100.00;97613.72;5040608;28;20032;-93
2023/01/16 16:45:15;;;;;;;1.77;1.55;;;;;;;3.56;100.00;97575.81;6041084;22;21420;-91
2023/01/16 16:47:46;;;;;;;1.73;1.35;;;;;;;3.64;100.00;97593.69;5041001;28;20042;-94
2023/01/16 16:59:39;;;;;;;1.93;1.57;;;;;;;3.78;100.00;97636.88;5044373;28;20314;-96
2023/01/16 17:02:07;;;;;;;2.15;1.45;;;;;;;3.77;100.00;97629.19;5033520;28;20488;-92
2023/01/16 17:04:34;;;;;;;2.10;1.48;;;;;;;3.63;100.00;97613.28;5055633;28;20029;-92